Latest Coastal Weather Observations for Charles Point

IDD60701

Issued at 3:31 pm CST Thursday 21 June 2018 (issued every 10 minutes, with the page automatically refreshed every 10 minutes)

About coastal observations | Map of coastal stations | Coastal observations for NT | Marine services | Other Formats
Station Details ID: 014031 Name: CHARLES POINT Lat: -12.39 Lon: 130.63 Height: 14.0 m
Data from the previous 72 hours. | See also: Recent months for locations in Northern Territory
Date/Time
CST
Temp
°C
Wind Pressure Rain since
9am
mm
Weather Cloud Vis
km
Sea
Height
m
Swell
Dir  Spd
kts
Gust
kts
hPa Trend Height
m
Period
s
Dir
21/03:30pm 28.1 NNE 4 7 1012.9 - 0.0 - - - - - - -
21/03:00pm 29.1 NE 3 5 1013.0 - 0.0 - - - - - - -
21/02:30pm 28.8 NE 4 6 1013.4 - 0.0 - - - - - - -
21/02:00pm 28.7 NE 5 7 1013.8 - 0.0 - - - - - - -
21/01:30pm 29.4 E 5 8 1014.0 - 0.0 - - - - - - -
21/01:00pm 28.8 E 5 9 1014.4 - 0.0 - - - - - - -
21/12:30pm 28.6 E 6 10 1014.9 - 0.0 - - - - - - -
21/12:00pm 28.1 E 6 11 1015.3 - 0.0 - - - - - - -
21/11:30am 27.6 E 4 7 1015.7 - 0.0 - - - - - - -
21/11:00am 26.8 E 6 11 1016.0 - 0.0 - - - - - - -
21/10:30am 26.6 ESE 6 13 1016.4 - 0.0 - - - - - - -
21/10:00am 25.8 ESE 6 10 1016.7 - 0.0 - - - - - - -
21/09:30am 24.4 SE 4 7 1016.7 - 0.0 - - - - - - -
21/09:00am 23.0 SE 5 10 1016.6 - 0.0 - - - - - - -
21/08:30am 21.9 SE 5 8 1016.3 - 0.0 - - - - - - -
21/08:00am 21.6 SE 5 7 1016.1 - 0.0 - - - - - - -
21/07:30am 21.8 SSE 5 8 1015.6 - 0.0 - - - - - - -
21/07:00am 22.8 ESE 5 8 1015.3 - 0.0 - - - - - - -
21/06:30am 22.9 SE 5 8 1015.0 - 0.0 - - - - - - -
21/06:00am 23.2 SE 6 8 1014.9 - 0.0 - - - - - - -
21/05:30am 23.5 SE 6 9 1014.7 - 0.0 - - - - - - -
21/05:00am 23.5 SE 5 9 1014.4 - 0.0 - - - - - - -
21/04:30am 23.7 SSE 6 10 1014.3 - 0.0 - - - - - - -
21/04:00am 23.6 SSE 5 7 1014.2 - 0.0 - - - - - - -
21/03:30am 23.9 SSE 6 10 1014.2 - 0.0 - - - - - - -
21/03:00am 23.3 SSE 5 7 1014.3 - 0.0 - - - - - - -
21/02:30am 21.0 S 5 6 1014.4 - 0.0 - - - - - - -
21/02:00am 21.1 S 3 4 1014.7 - 0.0 - - - - - - -
21/01:30am 21.2 SSW 3 4 1014.9 - 0.0 - - - - - - -
21/01:00am 21.4 SSW 3 4 1014.9 - 0.0 - - - - - - -
21/12:30am 22.2 SSW 3 4 1014.9 - 0.0 - - - - - - -
21/12:00am 22.1 SSW 3 4 1014.9 - 0.0 - - - - - - -
 
Date/Time
CST
Temp
°C
Wind Pressure Rain since
9am
mm
Weather Cloud Vis
km
Sea
Height
m
Swell
Dir  Spd
kts
Gust
kts
hPa Trend Height
m
Period
s
Dir
20/11:30pm 22.2 SSW 3 4 1014.9 - 0.0 - - - - - - -
20/11:00pm 22.7 SSW 3 4 1015.1 - 0.0 - - - - - - -
20/10:30pm 22.8 SSW 3 4 1015.1 - 0.0 - - - - - - -
20/10:00pm 23.1 SSW 3 5 1015.2 - 0.0 - - - - - - -
20/09:30pm 23.0 SSW 4 5 1014.9 - 0.0 - - - - - - -
20/09:00pm 23.3 SW 3 5 1014.6 - 0.0 - - - - - - -
20/08:30pm 23.4 SSW 3 4 1014.3 - 0.0 - - - - - - -
20/08:00pm 23.7 SSW 3 5 1013.9 - 0.0 - - - - - - -
20/07:30pm 23.6 CALM 0 0 1013.6 - 0.0 - - - - - - -
20/07:00pm 24.9 CALM 0 0 1013.5 - 0.0 - - - - - - -
20/06:30pm 26.4 NE 3 4 1013.3 - 0.0 - - - - - - -
20/06:00pm 27.0 NNE 5 8 1013.0 - 0.0 - - - - - - -
20/05:30pm 27.4 NNE 4 6 1012.8 - 0.0 - - - - - - -
20/05:00pm 27.2 NNE 5 6 1012.7 - 0.0 - - - - - - -
20/04:30pm 27.4 NNE 7 10 1012.7 - 0.0 - - - - - - -
20/04:00pm 27.7 N 8 10 1012.7 - 0.0 - - - - - - -
20/03:30pm 27.6 N 9 10 1012.9 - 0.0 - - - - - - -
20/03:00pm 28.1 N 10 11 1013.1 - 0.0 - - - - - - -
20/02:30pm 29.7 NNE 5 8 1013.4 - 0.0 - - - - - - -
20/02:00pm 28.9 NNE 6 7 1013.8 - 0.0 - - - - - - -
20/01:30pm 30.4 ENE 4 7 1014.2 - 0.0 - - - - - - -
20/01:00pm 30.6 E 5 8 1014.6 - 0.0 - - - - - - -
20/12:30pm 30.4 ESE 5 9 1015.0 - 0.0 - - - - - - -
20/12:00pm 29.9 ESE 4 9 1015.4 - 0.0 - - - - - - -
20/11:30am 29.3 ESE 6 10 1015.7 - 0.0 - - - - - - -
20/11:00am 28.5 ESE 6 11 1015.9 - 0.0 - - - - - - -
20/10:30am 27.6 ESE 7 15 1016.1 - 0.0 - - - - - - -
20/10:00am 26.9 E 6 10 1016.4 - 0.0 - - - - - - -
20/09:30am 26.2 ESE 6 10 1016.5 - 0.0 - - - - - - -
20/09:00am 24.6 SE 4 9 1016.4 - 0.0 - - - - - - -
20/08:30am 23.2 SE 4 7 1016.2 - 0.0 - - - - - - -
20/08:00am 22.6 SSE 5 7 1016.1 - 0.0 - - - - - - -
20/07:30am 22.2 SE 5 8 1015.6 - 0.0 - - - - - - -
20/07:00am 22.4 SE 5 8 1015.3 - 0.0 - - - - - - -
20/06:30am 22.6 SSE 5 7 1015.0 - 0.0 - - - - - - -
20/06:00am 22.7 SE 5 8 1014.8 - 0.0 - - - - - - -
20/05:30am 23.0 SE 5 8 1015.0 - 0.0 - - - - - - -
20/05:00am 23.1 SSE 6 8 1015.0 - 0.0 - - - - - - -
20/04:30am 23.1 SSE 5 8 1015.0 - 0.0 - - - - - - -
20/04:00am 23.4 SSE 5 8 1014.9 - 0.0 - - - - - - -
20/03:30am 23.7 SSE 5 7 1015.1 - 0.0 - - - - - - -
20/03:00am 23.6 SE 4 6 1015.3 - 0.0 - - - - - - -
20/02:30am 21.4 SSE 3 4 1015.4 - 0.0 - - - - - - -
20/02:00am 21.5 SSE 2 3 1015.8 - 0.0 - - - - - - -
20/01:30am 22.1 S 1 2 1016.1 - 0.0 - - - - - - -
20/01:00am 22.8 SSW 2 3 1016.1 - 0.0 - - - - - - -
20/12:30am 23.7 SSW 2 3 1016.1 - 0.0 - - - - - - -
20/12:00am 24.1 SSW 2 4 1016.1 - 0.0 - - - - - - -
 
Date/Time
CST
Temp
°C
Wind Pressure Rain since
9am
mm
Weather Cloud Vis
km
Sea
Height
m
Swell
Dir  Spd
kts
Gust
kts
hPa Trend Height
m
Period
s
Dir
19/11:30pm 23.8 SSW 3 4 1016.1 - 0.0 - - - - - - -
19/11:00pm 24.3 SW 3 4 1016.2 - 0.0 - - - - - - -
19/10:30pm 24.2 SSW 3 4 1016.4 - 0.0 - - - - - - -
19/10:00pm 24.1 S 4 7 1016.5 - 0.0 - - - - - - -
19/09:30pm 23.3 SSW 2 3 1016.0 - 0.0 - - - - - - -
19/09:00pm 23.7 SSW 3 3 1015.7 - 0.0 - - - - - - -
19/08:30pm 23.6 SSW 3 4 1015.3 - 0.0 - - - - - - -
19/08:00pm 23.9 N 2 4 1014.9 - 0.0 - - - - - - -
19/07:30pm 26.2 N 2 4 1014.6 - 0.0 - - - - - - -
19/07:00pm 26.3 NNE 4 6 1014.4 - 0.0 - - - - - - -
19/06:30pm 26.3 NNE 6 8 1014.2 - 0.0 - - - - - - -
19/06:00pm 26.7 NNE 5 7 1013.8 - 0.0 - - - - - - -
19/05:30pm 27.0 N 6 7 1013.4 - 0.0 - - - - - - -
19/05:00pm 27.3 N 7 9 1013.2 - 0.0 - - - - - - -
19/04:30pm 27.7 N 8 10 1013.1 - 0.0 - - - - - - -
19/04:00pm 28.2 NNE 3 5 1012.9 - 0.0 - - - - - - -
19/03:30pm 28.4 NNE 5 8 1013.0 - 0.0 - - - - - - -
19/03:00pm 29.3 NE 4 5 1013.1 - 0.0 - - - - - - -
19/02:30pm 30.3 ENE 4 7 1013.5 - 0.0 - - - - - - -
19/02:00pm 30.2 ESE 3 8 1013.9 - 0.0 - - - - - - -
19/01:30pm 29.5 E 4 7 1014.3 - 0.0 - - - - - - -
19/01:00pm 28.7 SE 4 8 1014.8 - 0.0 - - - - - - -
19/12:30pm 28.6 ESE 6 10 1015.1 - 0.0 - - - - - - -
19/12:00pm 28.4 ESE 6 13 1015.4 - 0.0 - - - - - - -
19/11:30am 27.2 SE 6 11 1015.7 - 0.0 - - - - - - -
19/11:00am 27.0 SE 7 12 1016.0 - 0.0 - - - - - - -
19/10:30am 25.8 SE 7 12 1016.3 - 0.0 - - - - - - -
19/10:00am 25.1 SE 6 11 1016.6 - 0.0 - - - - - - -
19/09:30am 24.2 SE 6 9 1016.8 - 0.0 - - - - - - -
19/09:00am 23.6 SE 5 9 1017.0 - 0.0 - - - - - - -
19/08:30am 23.1 SE 5 7 1016.9 - 0.0 - - - - - - -
19/08:00am 22.7 SE 5 8 1016.7 - 0.0 - - - - - - -
19/07:30am 22.2 SE 4 8 1016.4 - 0.0 - - - - - - -
19/07:00am 22.2 SE 5 8 1016.0 - 0.0 - - - - - - -
19/06:30am 21.3 SSE 5 7 1015.6 - 0.0 - - - - - - -
19/06:00am 21.4 SSE 5 7 1015.2 - 0.0 - - - - - - -
19/05:30am 21.5 SE 5 9 1014.8 - 0.0 - - - - - - -
19/05:00am 21.5 SSE 5 7 1014.6 - 0.0 - - - - - - -
19/04:30am 21.8 SSE 5 9 1014.4 - 0.0 - - - - - - -
19/04:00am 21.7 SSE 4 7 1014.5 - 0.0 - - - - - - -
19/03:30am 21.8 SE 3 6 1014.3 - 0.0 - - - - - - -
19/03:00am 22.4 SE 3 5 1014.3 - 0.0 - - - - - - -
19/02:30am 22.1 SSE 3 5 1014.4 - 0.0 - - - - - - -
19/02:00am 21.4 SSE 4 5 1014.5 - 0.0 - - - - - - -
19/01:30am 21.3 S 3 4 1014.7 - 0.0 - - - - - - -
19/01:00am 21.2 S 3 4 1014.8 - 0.0 - - - - - - -
19/12:30am 21.4 S 3 4 1014.8 - 0.0 - - - - - - -
19/12:00am 21.5 S 3 4 1014.9 - 0.0 - - - - - - -
 
Date/Time
CST
Temp
°C
Wind Pressure Rain since
9am
mm
Weather Cloud Vis
km
Sea
Height
m
Swell
Dir  Spd
kts
Gust
kts
hPa Trend Height
m
Period
s
Dir
18/11:30pm 21.7 S 3 4 1015.1 - 0.0 - - - - - - -
18/11:00pm 22.0 SSW 3 4 1015.2 - 0.0 - - - - - - -
18/10:30pm 22.0 CALM 0 0 1015.1 - 0.0 - - - - - - -
18/10:00pm 22.2 CALM 0 0 1015.1 - 0.0 - - - - - - -
18/09:30pm 22.5 CALM 0 0 1015.0 - 0.0 - - - - - - -
18/09:00pm 22.8 CALM 0 0 1015.1 - 0.0 - - - - - - -
18/08:30pm 23.3 CALM 0 0 1014.9 - 0.0 - - - - - - -
18/08:00pm 24.0 CALM 0 0 1014.6 - 0.0 - - - - - - -
18/07:30pm 25.4 N 3 4 1014.2 - 0.0 - - - - - - -
18/07:00pm 26.1 NNW 4 5 1013.8 - 0.0 - - - - - - -
18/06:30pm 26.1 N 5 6 1013.5 - 0.0 - - - - - - -
18/06:00pm 26.4 N 5 6 1013.3 - 0.0 - - - - - - -
18/05:30pm 26.7 N 4 5 1012.9 - 0.0 - - - - - - -
18/05:00pm 27.9 NNW 3 5 1012.6 - 0.0 - - - - - - -
18/04:30pm 28.3 NW 4 6 1012.6 - 0.0 - - - - - - -
18/04:00pm 27.8 N 5 6 1012.4 - 0.0 - - - - - - -

Other Formats:

Comma delimited format used in spreadsheet applications
http://www.bom.gov.au/fwo/IDD60701/IDD60701.99510.axf

JavaScript Object Notation format (JSON) in row-major order
http://www.bom.gov.au/fwo/IDD60701/IDD60701.99510.json